Here is the Quick Look data you requested

The Data originates at the National Weather Service, and is made available here by the UAlbany Department of Atmospheric and Environmental Sciences

Surface Observations

KAFN 142052Z AUTO 28008KT 10SM CLR M06/M17 A2970 RMK AO2 SLP079 T10611172 53033=
KASH 142056Z 30011G19KT 10SM CLR M04/M16 A2975 RMK AO2 SLP086 T10441156 53036=
KBML 142052Z AUTO 00000KT 10SM CLR M12/M20 A2963 RMK AO2 SLP061 T11221200 53028=
KCON 142051Z AUTO 29009KT 10SM CLR M06/M17 A2972 RMK AO2 SLP069 T10561172 52033=
KDAW 142051Z AUTO VRB06G14KT 10SM CLR M06/M17 A2968 RMK AO2 SLP054 T10561167
 53030=
KEEN 142056Z AUTO 28008KT 10SM CLR M05/M16 A2976 RMK AO2 SLP097 T10501161 53034
 FZRANO=
KHIE 142052Z AUTO 30006KT 10SM CLR M12/M20 A2968 RMK AO2 SLP074 T11221200 53030=
KLCI 142056Z AUTO 28006G18KT 10SM CLR M07/M19 A2970 RMK AO2 SLP076 T10671189
 53032 FZRANO=
KLEB 142053Z 26008KT 10SM CLR M07/M19 A2973 RMK AO2 SLP084 T10671194 53031=
KMHT 142053Z 30011G18KT 10SM CLR M04/M20 A2972 RMK AO2 SLP085 T10441200 53035=
KMWN 142052Z 28061G75KT 130SM FEW001 M25/M28 RMK FEW V SCT BLSN AT STA=
KPSM 142056Z 30008KT 10SM CLR M05/M17 A2970 RMK AO2A PK WND 30026/16 SLP061
 T10461171 52032=